Algosoo — VGJD — position and weather

sailwx.info

Track history (hours):
 
Tides and Currents Weather Stations Pressure Air Temp Water Temp Dewpoint Dewpoint Depression Visibility Wind Speed Wind Dir Waves Ship Positions

Algosoo

Last reported at 2014-Aug-18 12:33 UTC. Time now 2014-Aug-20 10:52 UTC.
Position N 45°42' W 083°55'.

Length 223 m; draft 5.7 m.

Type: Cargo ship. MMSI: 316001799.

Date/timePositionNaut miles runAvg speedWind from/ knotsBaromVisibWave heightAir tempDewpointWater temp
2014-Aug-18 12:33N 45°42' W 083°55'9 9.2
2014-Aug-18 11:33N 45°42' W 084°08'8 8.5
2014-Aug-18 10:33N 45°41' W 084°20'8 8.2
2014-Aug-18 09:33N 45°43' W 084°32'9 8.6
2014-Aug-18 08:34N 45°48' W 084°42'9 8.5
2014-Aug-18 07:33N 45°50' W 084°54'8 8.4
2014-Aug-18 06:33N 45°51' W 085°06'8 8.4
2014-Aug-18 05:33N 45°52' W 085°18'8 8.4
2014-Aug-18 04:33N 45°53' W 085°30'8 8.4
2014-Aug-18 03:33N 45°52' W 085°42'9 8.5
2014-Aug-18 02:33N 45°50' W 085°53'9 9.0
2014-Aug-18 01:33N 45°44' W 086°03'9 8.7
2014-Aug-18 00:33N 45°37' W 086°11'63 8.8
2014-Aug-17 17:22N 44°36' W 086°36'123 8.0
2014-Aug-17 02:00N 42°36' W 087°12'   050 / 101014.0 5.4 1.023.0
2014-Aug-10 00:33N 44°26' W 086°56'2410.5
2014-Aug-09 22:14N 44°48' W 086°41'710.3
2014-Aug-09 21:33N 44°55' W 086°37'1110.6
2014-Aug-09 20:34N 45°04' W 086°31'1110.6
2014-Aug-09 19:33N 45°14' W 086°24'1010.5
2014-Aug-09 18:33N 45°23' W 086°18'1010.5
2014-Aug-09 17:34N 45°33' W 086°12'1010.4
2014-Aug-09 16:34N 45°42' W 086°04'1110.6
2014-Aug-09 15:34N 45°47' W 085°51'1110.5
2014-Aug-09 14:33N 45°52' W 085°37'1010.0
2014-Aug-09 13:33N 45°53' W 085°23'1110.5
2014-Aug-09 12:33N 45°52' W 085°08'1010.5
2014-Aug-09 11:33N 45°50' W 084°53'1010.3
2014-Aug-09 10:33N 45°47' W 084°39'1010.5
2014-Aug-09 09:33N 45°42' W 084°26'10 9.9
2014-Aug-09 08:33N 45°39' W 084°12'1010.1
2014-Aug-09 07:33N 45°35' W 083°59'1010.0
2014-Aug-09 06:33N 45°31' W 083°46'1010.0
2014-Aug-09 05:30N 45°27' W 083°33'  
Track history (hours):
 
Tides and Currents Weather Stations Pressure Air Temp Water Temp Dewpoint Dewpoint Depression Visibility Wind Speed Wind Dir Waves Ship Positions

Algosoo

Last reported at 2014-Aug-18 12:33 UTC. Time now 2014-Aug-20 10:52 UTC.
Position N 45°42' W 083°55'.

Length 223 m; draft 5.7 m.

Type: Cargo ship. MMSI: 316001799.

Date/timePositionNaut miles runAvg speedWind from/ knotsBaromVisibWave heightAir tempDewpointWater temp
2014-Aug-18 12:33N 45°42' W 083°55'9 9.2
2014-Aug-18 11:33N 45°42' W 084°08'8 8.5
2014-Aug-18 10:33N 45°41' W 084°20'8 8.2
2014-Aug-18 09:33N 45°43' W 084°32'9 8.6
2014-Aug-18 08:34N 45°48' W 084°42'9 8.5
2014-Aug-18 07:33N 45°50' W 084°54'8 8.4
2014-Aug-18 06:33N 45°51' W 085°06'8 8.4
2014-Aug-18 05:33N 45°52' W 085°18'8 8.4
2014-Aug-18 04:33N 45°53' W 085°30'8 8.4
2014-Aug-18 03:33N 45°52' W 085°42'9 8.5
2014-Aug-18 02:33N 45°50' W 085°53'9 9.0
2014-Aug-18 01:33N 45°44' W 086°03'9 8.7
2014-Aug-18 00:33N 45°37' W 086°11'63 8.8
2014-Aug-17 17:22N 44°36' W 086°36'123 8.0
2014-Aug-17 02:00N 42°36' W 087°12'   050 / 101014.0 5.4 1.023.0
2014-Aug-10 00:33N 44°26' W 086°56'2410.5
2014-Aug-09 22:14N 44°48' W 086°41'710.3
2014-Aug-09 21:33N 44°55' W 086°37'1110.6
2014-Aug-09 20:34N 45°04' W 086°31'1110.6
2014-Aug-09 19:33N 45°14' W 086°24'1010.5
2014-Aug-09 18:33N 45°23' W 086°18'1010.5
2014-Aug-09 17:34N 45°33' W 086°12'1010.4
2014-Aug-09 16:34N 45°42' W 086°04'1110.6
2014-Aug-09 15:34N 45°47' W 085°51'1110.5
2014-Aug-09 14:33N 45°52' W 085°37'1010.0
2014-Aug-09 13:33N 45°53' W 085°23'1110.5
2014-Aug-09 12:33N 45°52' W 085°08'1010.5
2014-Aug-09 11:33N 45°50' W 084°53'1010.3
2014-Aug-09 10:33N 45°47' W 084°39'1010.5
2014-Aug-09 09:33N 45°42' W 084°26'10 9.9
2014-Aug-09 08:33N 45°39' W 084°12'1010.1
2014-Aug-09 07:33N 45°35' W 083°59'1010.0
2014-Aug-09 06:33N 45°31' W 083°46'1010.0
2014-Aug-09 05:30N 45°27' W 083°33'  

Dump ship's entire track history